Terminal Aerodrome Forecast
Issued by NWS Amarillo, TX

Home | Current Version | Previous Version | Text Only | Print | Product List | Glossary On
Versions: 1 2 3 4 5 6 7 8 9 10 11 12 13 14 15 16 17 18
000
FTUS44 KAMA 311700
TAFDHT
TAF
KDHT 311733Z 3118/0118 08008KT P6SM SCT050 BKN100
     FM010000 09007KT P6SM OVC120
     FM011200 29007KT P6SM OVC120=

USA.gov is the U.S. government's official web portal to all federal, state and local government web resources and services.